Rechercher aéroport 
image banner adimage banner adimage banner ad
image banner ad

4CA3 - Camp Parks

Situé à Pleasanton, United States

ICAO - 4CA3, IATA -

Données fournies par Airmate  

Information générale

Coordonnées: N37°42'30" W121°53'34"
Élévation : 361 feet MSL.
Variation magnétique : 16° East
Voir autres Aéroports à California

Données opérationnelles

Special qualification required
Heure actuelle UTC:
Heure actuelle locale:
Météo à : KLVK - Livermore Muni ( 7 km )
METAR: KLVK 270453Z AUTO 00000KT 10SM CLR 20/09 A2993 RMK AO2 SLP130 T02000094
TAF: KLVK 262340Z 2700/2724 28011KT P6SM SCT200 FM270200 29008KT P6SM BKN200 FM271000 VRB05KT P6SM VCSH BKN100 BKN200 FM271600 29005KT P6SM SCT100 SCT200 FM272000 29010KT P6SM FEW100 FEW200
Voir NOTAMs / SUP AIP / TFR affectant cet aéroport [VIEW]
Fréquences de communication: [VIEW]

Pistes:

Coordonnées de l'aéroport

Adresse: Pleasanton United States

Vue satellite de 4CA3